Tiempo atmosférico en la estación meteorológica de Bielsa, Huesca (990 m.)



Fecha
DESCASC
Temp. máxima en grados centígrados (hora)
DESCASC
Temp. mínima en grados centígrados (hora)
DESCASC
Temp. media en grados centígrados
DESCASC
Racha de viento máxima en m/sg (hora)
DESCASC
Velocidad máxima media en intervalos de 10 minutos(hora)
DESCASC
Precipitaciones diarias en mm
DESCASC
Precipitaciones de 00:00 a 06:00 en mm
DESCASC
Precipitaciones de 06:00 a 12:00 en mm
DESCASC
Precipitaciones de 12:00 a 18:00 en mm
DESCASC
Precipitaciones de 18:00 a 24:00 en mm
DESCASC
22-08-2019 28.3 (15:10) 9.5 (07:50) 18.9 8.61 (16:00) 2.5 (15:20) 0 0 0 0 0
21-08-2019 27.6 (17:10) 9.2 (06:00) 18.4 6.67 (15:10) 2.22 (15:30) 0 0 0 0 0
20-08-2019 24.4 (16:30) 11.9 (23:59) 18.1 12.5 (18:20) 4.44 (18:20) 42.4 23 19.4 0 0
19-08-2019 27.1 (12:20) 15.8 (23:50) 21.5 10 (14:40) 3.06 (11:30) 3.8 0 0 0 3.8
18-08-2019 33.7 (16:30) 13.7 (00:00) 23.7 12.78 (15:10) 5 (17:30) 0.4 0 0 0 0.4
17-08-2019 33.4 (16:50) 11.7 (00:00) 22.6 10 (14:40) 2.78 (14:20) 0 0 0 0 0
16-08-2019 31.1 (16:10) 9.7 (00:00) 20.4 9.72 (12:50) 3.33 (13:20) 0 0 0 0 0
15-08-2019 30.6 (17:00) 11.4 (00:00) 21 11.67 (15:10) 4.72 (11:50) 0 0 0 0 0
14-08-2019 31 (18:10) 7.6 (00:00) 19.3 11.39 (19:50) 3.89 (20:00) 0 0 0 0 0
13-08-2019 26.3 (16:30) 10.6 (00:00) 18.4 10.28 (13:10) 3.33 (13:50) 0 0 0 0 0
12-08-2019 22.6 (11:30) 13.3 (00:00) 18 13.33 (16:20) 5.83 (16:50) 0.4 0 0.2 0.2 0
11-08-2019 26.3 (17:00) 16.3 (00:00) 21.3 13.33 (09:40) 5.83 (09:40) 0 0 0 0 0
10-08-2019 30.7 (15:30) 18.3 (00:00) 24.5 16.39 (14:40) 4.17 (18:00) 0 0 0 0 0
09-08-2019 33.9 (16:00) 14.9 (00:00) 24.4 10 (14:40) 3.61 (20:50) 0 0 0 0 0
08-08-2019 30 (16:10) 16.9 (00:00) 23.4 7.78 (15:10) 2.22 (12:10) 0 0 0 0 0
07-08-2019 28.4 (14:40) 15.1 (00:00) 21.8 10.56 (16:30) 3.06 (11:10) 0 0 0 0 0
06-08-2019 32.5 (15:40) 14.6 (00:00) 23.6 8.33 (13:10) 3.06 (13:00) 0 0 0 0 0
05-08-2019 33.2 (16:40) 14.2 (00:00) 23.7 11.11 (15:10) 4.17 (15:10) 0 0 0 0 0
04-08-2019 33.4 (16:40) 13.8 (00:00) 23.6 11.39 (16:10) 3.33 (17:50) 0 0 0 0 0
03-08-2019 32.2 (15:50) 12.1 (00:00) 22.2 10 (16:40) 2.78 (13:00) 0 0 0 0 0
02-08-2019 31.9 (18:30) 12.3 (00:00) 22.1 8.61 (20:30) 3.33 (19:00) 0 0 0 0 0
01-08-2019 29.8 (17:00) 13.5 (00:00) 21.6 12.22 (21:20) 3.33 (21:20) 0 0 0 0 0
31-07-2019 29.2 (17:00) 9.1 (00:00) 19.2 7.78 (15:40) 2.5 (16:00) 0 0 0 0 0
30-07-2019 27.4 (18:10) 13.7 (00:00) 20.5 11.39 (14:00) 3.61 (13:50) 0 0 0 0 0
29-07-2019 30.6 (17:50) 9.1 (00:00) 19.9 8.33 (15:40) 2.78 (14:00) 0 0 0 0 0
28-07-2019 27.8 (18:20) 12.1 (00:00) 19.9 9.17 (04:10) 4.17 (11:50) 0 0 0 0 0
27-07-2019 20.2 (15:20) 13.4 (00:00) 16.8 16.67 (05:30) 5 (23:20) -- -- -- 0 0
26-07-2019 25.7 (11:40) 15 (00:00) 20.4 11.11 (20:30) 4.17 (14:30) -- -- -- -- --

Gráficas

Temp. máximas Temp. mínimas Temp. medias Precipitaciones Rachas de viento máximas Velocidades máximas media en intervalos de 10 minutos

Datos horarios

Fecha y hora oficial Temperatura (ºC) Velocidad del viento (km/h) Dirección del viento Racha (km/h) Dirección de racha Precipitación (mm) Presión (hPa) Tendencia (hPa) Humedad (%)
2019-08-24 23:00:00 16 0 Calma 8 Noroeste 0 908.9 1.6 74
2019-08-24 22:00:00 17.5 2 Noroeste 8 Noroeste 0 908.5 1.5 72
2019-08-24 21:00:00 19.6 2 Noroeste 5 Noroeste 0 907.9 0.9 67
2019-08-24 20:00:00 22.2 2 Noroeste 13 Sudoeste 0 907.3 0.4 59
2019-08-24 19:00:00 25.6 5 Sudeste 17 Sudeste 0 907 -0.1 42
2019-08-24 18:00:00 28 2 Sudoeste 21 Sur 0 907 -0.4 40
2019-08-24 17:00:00 29.5 8 Sudeste 28 Sudeste 0 906.9 -0.8 31
2019-08-24 16:00:00 29.7 6 Sudeste 24 Sudeste 0 907.1 -0.9 32
2019-08-24 15:00:00 29.6 6 Sudeste 28 Sudeste 0 907.4 -0.9 32
2019-08-24 14:00:00 28.7 7 Sudeste 32 Sur 0 907.7 -1 34
2019-08-24 13:00:00 27.5 7 Sudeste 25 Sudeste 0 908 -1.3 37
2019-08-24 12:00:00 25.5 5 Sudeste 19 Este 0 908.3 -1.3 42
2019-08-24 11:00:00 20.6 2 Sudeste 6 Norte 0 908.7 -0.9 63
2019-08-24 10:00:00 18.1 3 Noroeste 9 Norte 0 909.3 -0.2 70
2019-08-24 09:00:00 13.2 0 Calma 7 Noroeste 0 909.6 0 95
2019-08-24 08:00:00 11.9 2 Oeste 9 Oeste 0 909.6 -0.1 94
2019-08-24 07:00:00 11.7 0 Calma 12 Noroeste 0 909.5 -0.2 93
2019-08-24 06:00:00 11.9 3 Noroeste 9 Noroeste 0 909.6 0 94
2019-08-24 05:00:00 12.1 0 Calma 8 Noroeste 0 909.7 -0.1 93
2019-08-24 04:00:00 12.6 0 Calma 6 Sudoeste 0 909.7 -0.1 92
2019-08-24 03:00:00 12.9 2 Noroeste 6 Noroeste 0 909.6 0 91
2019-08-24 02:00:00 13.4 0 Calma 6 Noroeste 0 909.8 0.4 89
2019-08-24 01:00:00 14.1 2 Noroeste 8 Noroeste 0 909.8 0.8 88
2019-08-24 00:00:00 14.9 0 Calma 4 Norte 0 909.6 1.2 85
2019-08-23 23:00:00 15.9 2 Noroeste 8 Noroeste 0 909.4 1.7 82
2019-08-23 22:00:00 17.2 2 Noroeste 7 Noroeste 0 909 1.6 77
2019-08-23 21:00:00 18.6 3 Norte 6 Norte 0 908.4 0.8 73
2019-08-23 20:00:00 20.7 0 Calma 10 Sur 0 907.7 0.1 65
2019-08-23 19:00:00 24.5 5 Sudeste 18 Sudeste 0 907.4 -0.4 42
2019-08-23 18:00:00 28.1 5 Sudeste 20 Sudeste 0 907.6 -0.8 35
2019-08-23 17:00:00 28.5 7 Sudeste 27 Sur 0 907.6 -1.2 32
2019-08-23 16:00:00 28.1 6 Sudeste 24 Sur 0 907.8 -1.4 36
2019-08-23 15:00:00 28.6 7 Sudeste 24 Sudeste 0 908.4 -1.4 34
2019-08-23 14:00:00 27 8 Sudeste 27 Sur 0 908.8 -1.4 38
2019-08-23 13:00:00 26.4 6 Sudeste 27 Este 0 909.2 -1.3 42
2019-08-23 12:00:00 24.5 5 Sudeste 24 Este 0 909.8 -0.7 48
2019-08-23 11:00:00 20.7 9 Este 26 Este 0 910.2 -0.6 56
2019-08-23 10:00:00 17.4 0 Calma 10 Este 0 910.5 -0.1 72
2019-08-23 09:00:00 13.5 2 Nordeste 10 Norte 0 910.5 0 96
2019-08-23 08:00:00 11.7 2 Oeste 6 Noroeste 0 910.8 0.2 96
2019-08-23 07:00:00 11.7 0 Calma 8 Oeste 0 910.6 -0.1 96
2019-08-23 06:00:00 12 0 Calma 6 Oeste 0 910.5 -0.2 96
2019-08-23 05:00:00 12.6 0 Calma 13 Noroeste 0 910.6 0 93
2019-08-23 04:00:00 13.1 4 Noroeste 15 Sudoeste 0 910.7 0.2 92
2019-08-23 03:00:00 13.6 4 Noroeste 12 Noroeste 0 910.7 0.2 91
2019-08-23 02:00:00 13.7 2 Oeste 7 Noroeste 0 910.6 0.2 91
2019-08-23 01:00:00 13.8 0 Calma 6 Oeste 0 910.5 0.5 90
2019-08-23 00:00:00 14.6 3 Oeste 10 Noroeste 0 910.5 1.4 87
2019-08-22 23:00:00 15.2 0 Calma 8 Noroeste 0 910.4 2.2 84
2019-08-22 22:00:00 16.9 2 Noroeste 14 Oeste 0 910 2.2 77
2019-08-22 21:00:00 18.2 5 Noroeste 13 Noroeste 0 909.1 1.3 72
2019-08-22 20:00:00 20.2 2 Noroeste 8 Oeste 0 908.2 0.6 70
2019-08-22 19:00:00 22.9 3 Sur 21 Sur 0 907.8 0.1 57
2019-08-22 18:00:00 27.1 7 Sudeste 26 Sur 0 907.8 -0.3 46
2019-08-22 17:00:00 27.9 8 Sudeste 25 Este 0 907.6 -0.6 43
2019-08-22 16:00:00 28.2 9 Sudeste 31 Sudeste 0 907.7 -0.9 42
2019-08-22 15:00:00 28 7 Sudeste 31 Sudeste 0 908.1 -0.9 41
2019-08-22 14:00:00 27.5 6 Sudeste 24 Sudeste 0 908.2 -1.3 41
2019-08-22 13:00:00 26.1 6 Sudeste 20 Sudeste 0 908.6 -1.2 46
2019-08-22 12:00:00 24.1 6 Sudeste 17 Sur 0 909 -1.1 53
2019-08-22 11:00:00 18.6 3 Sudeste 7 Sur 0 909.5 -0.4 60
2019-08-22 10:00:00 15.7 2 Norte 8 Noroeste 0 909.8 0.3 63
2019-08-22 09:00:00 11 2 Este 6 Noroeste 0 910.1 0.9 92
2019-08-22 08:00:00 9.5 3 Noroeste 9 Noroeste 0 909.9 0.9 93
2019-08-22 07:00:00 9.7 0 Calma 5 Oeste 0 909.5 0.5 94
2019-08-22 06:00:00 10.3 0 Calma 5 Noroeste 0 909.2 0 92
2019-08-22 05:00:00 11 0 Calma 9 Noroeste 0 909 -0.4 91
2019-08-22 04:00:00 11.8 0 Calma 6 Norte 0 909 -0.4 92
2019-08-22 03:00:00 12.8 0 Calma 5 Noroeste 0 909.2 -0.3 91
2019-08-22 02:00:00 13.9 0 Calma 9 Noroeste 0 909.4 0.1 90
2019-08-22 01:00:00 15.1 4 Norte 9 Noroeste 0 909.4 0.5 87
2019-08-22 00:00:00 15.7 4 Noroeste 13 Norte 0 909.5 1.5 86
2019-08-21 23:00:00 16.2 0 Calma 7 Noroeste 0 909.3 1.9 85
2019-08-21 22:00:00 17.4 0 Calma 6 Noroeste 0 908.9 2.2 83
2019-08-21 21:00:00 19.2 0 Calma 14 Sur 0 908 1.6 79
2019-08-21 20:00:00 21.2 3 Sur 21 Este 0 907.4 1.1 65
2019-08-21 19:00:00 22.6 0 Calma 15 Nordeste 0 906.7 0 58
2019-08-21 18:00:00 25.6 3 Sudeste 14 Sudeste 0 906.4 -1.1 45
2019-08-21 17:00:00 27.4 6 Sur 17 Sur 0 906.3 -1.7 32
2019-08-21 16:00:00 26.9 6 Sudeste 24 Sudeste 0 906.7 -1.8 40
2019-08-21 15:00:00 25 6 Sudeste 23 Sur 0 907.5 -1.3 48
2019-08-21 14:00:00 24.1 5 Sudeste 20 Sur 0 908 -1.2 41
2019-08-21 13:00:00 21.7 6 Sudeste 19 Sudeste 0 908.5 -1.1 52
2019-08-21 12:00:00 22.1 4 Sudeste 10 Sudeste 0 908.8 -1.4 48
2019-08-21 11:00:00 18.3 3 Sudeste 11 Este 0 909.2 -0.9 58
2019-08-21 10:00:00 16 2 Noroeste 9 Noroeste 0 909.6 -0.7 64
2019-08-21 09:00:00 11.9 2 Noroeste 11 Noroeste 0 910.2 -0.3 92
2019-08-21 08:00:00 10.3 0 Calma 13 Noroeste 0 910.1 -0.5 96
2019-08-21 07:00:00 9.4 0 Calma 9 Noroeste 0 910.3 -0.3 96
2019-08-21 06:00:00 9.2 0 Calma 11 Noroeste 0 910.5 -0.1 96
2019-08-21 05:00:00 9.5 2 Oeste 8 Noroeste 0 910.6 -0.3 96
2019-08-21 04:00:00 9.8 2 Noroeste 9 Noroeste 0 910.6 -0.5 96
2019-08-21 03:00:00 10.3 2 Noroeste 15 Norte 0 910.6 -0.5 95
2019-08-21 02:00:00 10.6 3 Noroeste 9 Norte 0 910.9 0.2 94
2019-08-21 01:00:00 11.1 0 Calma 8 Noroeste 0 911.1 0.7 93
2019-08-21 00:00:00 11.9 0 Calma 8 Oeste 0 911.1 1.3 90
2019-08-20 23:00:00 12.8 2 Noroeste 10 Noroeste 0 910.7 1.6 88
2019-08-20 22:00:00 14.2 0 Calma 6 Este 0 910.4 2 84
2019-08-20 21:00:00 16.2 3 Nordeste 24 Noroeste 0 909.8 1.8 69
2019-08-20 20:00:00 18.4 9 Noroeste 34 Noroeste 0 909.1 1.1 54
2019-08-20 19:00:00 19.9 11 Noroeste 45 Noroeste 0 908.4 0.5 50
2019-08-20 18:00:00 23 10 Noroeste 31 Noroeste 0 908 -0.3 41
2019-08-20 17:00:00 24 8 Sudeste 26 Sudeste 0 908 -0.4 49
2019-08-20 16:00:00 24.1 8 Sudeste 24 Sur 0 907.9 -0.9 50
2019-08-20 15:00:00 23.4 8 Sudeste 27 Sur 0 908.3 -0.8 53
2019-08-20 14:00:00 22 9 Noroeste 24 Noroeste 0 908.4 -1.5 46
2019-08-20 13:00:00 18.6 9 Noroeste 24 Noroeste 0 908.8 0.5 67
2019-08-20 12:00:00 15.1 8 Noroeste 26 Noroeste 0.4 909.1 1.2 90
2019-08-20 11:00:00 14 3 Nordeste 19 Norte 5 909.9 2.7 96
2019-08-20 10:00:00 14.1 2 Nordeste 10 Norte 2 908.3 1.1 97
2019-08-20 09:00:00 14.1 2 Oeste 13 Norte 2.2 907.9 1.1 97
2019-08-20 08:00:00 13.8 4 Norte 12 Noroeste 5 907.2 0.9 97
2019-08-20 07:00:00 14 5 Norte 14 Noroeste 4.8 907.2 0.1 96
2019-08-20 06:00:00 14.2 0 Calma 14 Norte 4 906.8 0 96
2019-08-20 05:00:00 14.6 0 Calma 15 Norte 3.8 906.3 0 96
2019-08-20 04:00:00 14.7 3 Noroeste 21 Noroeste 5 907.1 -0.3 96
2019-08-20 03:00:00 15.1 2 Norte 13 Norte 6.6 906.8 -1.1 96
2019-08-20 02:00:00 15.1 4 Norte 14 Norte 1.6 906.3 -1.9 96
2019-08-20 01:00:00 15.4 4 Noroeste 15 Este 2 907.4 -0.5 96
2019-08-20 00:00:00 15.8 6 Norte 16 Norte 1.8 907.9 1.4 96
2019-08-19 23:00:00 16.2 0 Calma 10 Norte 1.2 908.2 1.2 94
2019-08-19 22:00:00 16.6 3 Noroeste 9 Este 0.6 907.9 1.8 93
2019-08-19 21:00:00 17.4 0 Calma 11 Sur 0 906.5 0.6 87
2019-08-19 20:00:00 18.7 4 Este 18 Sudeste 0.2 907 1.2 81
2019-08-19 19:00:00 21.6 3 Sudeste 21 Este 0 906.1 0.2 67
2019-08-19 18:00:00 22.8 5 Sudeste 15 Este 0 905.9 0 62
2019-08-19 17:00:00 23.2 4 Sudeste 25 Sudeste 0 905.8 0.2 55
2019-08-19 16:00:00 23.8 6 Sur 31 Sur 0 905.9 0.3 50
2019-08-19 15:00:00 23.8 9 Sur 36 Sur 0 905.9 1 53
2019-08-19 14:00:00 24.7 9 Sudeste 34 Sur 0 905.6 0.4 54
2019-08-19 13:00:00 24.3 8 Sudeste 32 Este 0 905.6 0.7 57
2019-08-19 12:00:00 26.3 8 Sudeste 28 Este 0 904.9 0.4 49
2019-08-19 11:00:00 22.4 7 Sudeste 22 Este 0 905.2 0.5 62
2019-08-19 10:00:00 20.5 6 Sudeste 23 Este 0 904.9 0.5 72
2019-08-19 09:00:00 18.8 3 Sur 9 Sur 0 904.5 0.5 77
2019-08-19 08:00:00 16.9 0 Calma 8 Noroeste 0 904.7 0.5 94
2019-08-19 07:00:00 16.3 0 Calma 5 Este 0 904.4 0 94
2019-08-19 06:00:00 16.3 2 Noroeste 5 Oeste 0 904 -0.3 94
2019-08-19 05:00:00 16 0 Calma 4 Nordeste 0 904.2 -0.5 94
2019-08-19 04:00:00 16.1 0 Calma 10 Noroeste 0 904.4 -0.1 93
2019-08-19 03:00:00 16.4 2 Sudoeste 11 Norte 0 904.3 -0.1 92
2019-08-19 02:00:00 17 0 Calma 16 Norte 0 904.7 0.9 89
2019-08-19 01:00:00 17.4 4 Norte 18 Noroeste 0 904.5 2.1 88
2019-08-19 00:00:00 18.2 6 Norte 28 Norte 0.2 904.4 2.8 84
2019-08-18 23:00:00 21 7 Norte 29 Este 0.2 903.8 3.1 70
2019-08-18 22:00:00 23.7 2 Noroeste 22 Sur 0 902.4 2 45
2019-08-18 21:00:00 25.6 7 Este 30 Este 0 901.6 1.1 35
2019-08-18 20:00:00 28.3 12 Este 34 Este 0 900.7 -0.1 24
2019-08-18 19:00:00 30.3 10 Sudeste 41 Este 0 900.4 -0.8 17
2019-08-18 18:00:00 32.6 10 Sudeste 46 Este 0 900.5 -1 14
2019-08-18 17:00:00 31.5 12 Sudeste 34 Sudeste 0 900.8 -1.4 20
2019-08-18 16:00:00 32.1 11 Sudeste 46 Este 0 901.2 -1.6 20
2019-08-18 15:00:00 31.3 12 Este 39 Este 0 901.5 -1.4 25
2019-08-18 14:00:00 31.5 8 Sudeste 32 Sudeste 0 902.2 -0.8 26
2019-08-18 13:00:00 30.7 11 Sudeste 31 Sur 0 902.8 -0.5 29
2019-08-18 12:00:00 28.8 10 Sudeste 31 Sur 0 902.9 -0.5 42
2019-08-18 11:00:00 24.2 6 Sudeste 21 Sur 0 903 -0.5 59
2019-08-18 10:00:00 21.3 3 Sudeste 6 Sudeste 0 903.3 0 62
2019-08-18 09:00:00 15.8 0 Calma 7 Noroeste 0 903.4 0.3 88
2019-08-18 08:00:00 13.8 2 Norte 6 Noroeste 0 903.5 0.2 91
2019-08-18 07:00:00 13.9 0 Calma 9 Norte 0 903.3 -0.3 88
2019-08-18 06:00:00 14.1 0 Calma 5 Noroeste 0 903.1 -0.9 89
2019-08-18 05:00:00 14.8 0 Calma 6 Noroeste 0 903.3 -1.2 86
2019-08-18 04:00:00 15.4 3 Noroeste 8 Noroeste 0 903.6 -1.2 84
2019-08-18 03:00:00 16 0 Calma 6 Noroeste 0 904 -0.6 81
2019-08-18 02:00:00 16.5 0 Calma 10 Noroeste 0 904.5 0.2 77
2019-08-18 01:00:00 17.2 2 Noroeste 8 Norte 0 904.8 0.9 72
2019-08-18 00:00:00 17.4 2 Norte 6 Norte 0 904.6 1.5 68
2019-08-17 23:00:00 18.1 2 Noroeste 7 Noroeste 0 904.3 1.3 63
2019-08-17 22:00:00 19.8 2 Nordeste 8 Noroeste 0 903.9 1.1 58
2019-08-17 21:00:00 22.1 3 Noroeste 6 Noroeste 0 903.1 -0.1 53
2019-08-17 20:00:00 25.8 3 Noroeste 21 Sur 0 903 -0.4 42
2019-08-17 19:00:00 29.4 5 Sudeste 28 Este 0 902.8 -1 28
2019-08-17 18:00:00 30.9 7 Sudeste 24 Este 0 903.2 -1.1 26
2019-08-17 17:00:00 32.1 8 Sudeste 31 Sur 0 903.4 -1.5 23
2019-08-17 16:00:00 33.1 8 Sudeste 35 Sudeste 0 903.8 -1.6 21
2019-08-17 15:00:00 31.9 8 Sudeste 36 Este 0 904.3 -1.6 22
2019-08-17 14:00:00 32.2 8 Sudeste 29 Sudeste 0 904.9 -1.3 22
2019-08-17 13:00:00 30.9 9 Sudeste 33 Sur 0 905.4 -1.1 21
2019-08-17 12:00:00 29.2 10 Sur 23 Sur 0 905.9 -1 25
2019-08-17 11:00:00 23.8 6 Sudeste 17 Este 0 906.2 -0.8 38
2019-08-17 10:00:00 20.3 0 Calma 8 Norte 0 906.5 -0.3 54
2019-08-17 09:00:00 13.9 2 Nordeste 5 Este 0 906.9 -0.1 77
2019-08-17 08:00:00 12.1 2 Oeste 8 Noroeste 0 907 -0.3 75
2019-08-17 07:00:00 11.9 3 Noroeste 12 Norte 0 906.8 -0.7 76
2019-08-17 06:00:00 11.9 0 Calma 8 Noroeste 0 907 -0.5 75
2019-08-17 05:00:00 12.5 5 Noroeste 13 Norte 0 907.3 -0.1 70
2019-08-17 04:00:00 12.5 3 Oeste 8 Noroeste 0 907.5 0 73
2019-08-17 03:00:00 13.2 2 Noroeste 8 Noroeste 0 907.5 0.1 69
2019-08-17 02:00:00 13.9 2 Noroeste 6 Noroeste 0 907.4 0.5 67
2019-08-17 01:00:00 15 2 Sur 14 Noroeste 0 907.5 1 62
2019-08-17 00:00:00 14.9 2 Este 7 Norte 0 907.4 1.8 63
2019-08-16 23:00:00 16.3 0 Calma 9 Oeste 0 906.9 1.8 58
2019-08-16 22:00:00 17.7 3 Noroeste 8 Noroeste 0 906.5 1.8 55
2019-08-16 21:00:00 19.7 3 Noroeste 7 Noroeste 0 905.6 0.8 49
2019-08-16 20:00:00 23.1 0 Calma 12 Sudeste 0 905.1 0.2 41
2019-08-16 19:00:00 28 3 Sudeste 17 Sur 0 904.7 -0.6 28
2019-08-16 18:00:00 31 4 Sudoeste 30 Sudeste 0 904.8 -1 22
2019-08-16 17:00:00 31 8 Sudeste 26 Sur 0 904.9 -1.4 23
2019-08-16 16:00:00 31 8 Sudeste 28 Sur 0 905.3 -1.4 21
2019-08-16 15:00:00 30.6 8 Sudeste 27 Sudeste 0 905.8 -1.3 22
2019-08-16 14:00:00 29.5 10 Sudeste 33 Sur 0 906.3 -1.4 25
2019-08-16 13:00:00 28.1 8 Sudeste 35 Este 0 906.7 -1.4 25
2019-08-16 12:00:00 25.4 7 Este 28 Este 0 907.1 -1.4 30
2019-08-16 11:00:00 20.6 5 Sudeste 12 Este 0 907.7 -0.8 46
2019-08-16 10:00:00 17.9 0 Calma 5 Noroeste 0 908.1 -0.1 50
2019-08-16 09:00:00 11.8 0 Calma 6 Noroeste 0 908.5 0.6 80
2019-08-16 08:00:00 9.7 0 Calma 6 Noroeste 0 908.5 0.3 86
2019-08-16 07:00:00 9.8 0 Calma 5 Norte 0 908.2 -0.3 85
2019-08-16 06:00:00 10.2 2 Noroeste 6 Noroeste 0 907.9 -0.6 84
2019-08-16 05:00:00 10.5 2 Noroeste 7 Noroeste 0 908.2 -0.1 83
2019-08-16 04:00:00 11.2 0 Calma 6 Noroeste 0 908.5 0.3 82
2019-08-16 03:00:00 11.9 0 Calma 17 Nordeste 0 908.5 0.3 80
2019-08-16 02:00:00 12.8 0 Calma 14 Sudeste 0 908.3 0.4 78
2019-08-16 01:00:00 13.8 0 Calma 6 Noroeste 0 908.2 0.6 73
2019-08-16 00:00:00 15.1 0 Calma 10 Noroeste 0 908.2 1.5 69
2019-08-15 23:00:00 16.2 2 Noroeste 7 Norte 0 907.9 1.9 66
2019-08-15 22:00:00 17.9 3 Norte 6 Noroeste 0 907.6 2.2 59
2019-08-15 21:00:00 20.4 0 Calma 22 Noroeste 0 906.7 1.6 53
2019-08-15 20:00:00 23.5 5 Noroeste 23 Norte 0 906 0.7 39
2019-08-15 19:00:00 25.9 12 Noroeste 28 Noroeste 0 905.4 -0.2 33
2019-08-15 18:00:00 30.4 5 Sudeste 27 Este 0 905.1 -0.9 20
2019-08-15 17:00:00 30.3 8 Sudeste 37 Este 0 905.3 -1.2 20
2019-08-15 16:00:00 29.7 12 Sudeste 42 Este 0 905.6 -1.2 24
2019-08-15 15:00:00 28.7 9 Sudeste 32 Sudeste 0 906 -1 29
2019-08-15 14:00:00 29.2 8 Sudeste 32 Sur 0 906.5 -0.9 32
2019-08-15 13:00:00 28.1 9 Sudeste 33 Sudeste 0 906.8 -1 33
2019-08-15 12:00:00 25.4 13 Sudeste 39 Este 0 907 -1.2 39
2019-08-15 11:00:00 22.4 10 Este 33 Este 0 907.4 -0.9 46
2019-08-15 10:00:00 19.7 5 Este 12 Este 0 907.8 -0.1 55
2019-08-15 09:00:00 14.3 0 Calma 6 Noroeste 0 908.2 0.4 79
2019-08-15 08:00:00 11.8 0 Calma 9 Oeste 0 908.3 0.5 85
2019-08-15 07:00:00 11.6 2 Norte 12 Noroeste 0 907.9 0.2 85
2019-08-15 06:00:00 11.6 0 Calma 9 Noroeste 0 907.8 0.2 85
2019-08-15 05:00:00 12.2 2 Norte 7 Noroeste 0 907.8 0.1 82
2019-08-15 04:00:00 12.6 2 Norte 6 Noroeste 0 907.7 -0.2 81
2019-08-15 03:00:00 13.3 0 Calma 8 Noroeste 0 907.6 -0.3 77
2019-08-15 02:00:00 14.4 3 Noroeste 12 Noroeste 0 907.7 0.1 73
2019-08-15 01:00:00 15.1 4 Noroeste 11 Noroeste 0 907.9 0.6 69
2019-08-15 00:00:00 15.9 0 Calma 11 Noroeste 0 907.9 1.6 66
2019-08-14 23:00:00 17.3 3 Noroeste 12 Norte 0 907.6 2 60
2019-08-14 22:00:00 19.3 2 Noroeste 10 Noroeste 0 907.3 2.4 54
2019-08-14 21:00:00 21.9 3 Norte 27 Noroeste 0 906.3 1.3 45
2019-08-14 20:00:00 24.2 14 Noroeste 41 Noroeste 0 905.6 0.6 35
2019-08-14 19:00:00 27.2 7 Noroeste 22 Noroeste 0 904.9 -0.3 28
2019-08-14 18:00:00 30.9 3 Sur 23 Este 0 905 -0.5 21
2019-08-14 17:00:00 30.4 7 Sudeste 27 Sudeste 0 905 -0.8 18
2019-08-14 16:00:00 30.1 8 Sudeste 30 Sur 0 905.2 -1 18
2019-08-14 15:00:00 29.5 8 Sudeste 30 Sur 0 905.5 -0.9 19
2019-08-14 14:00:00 27.6 6 Sudeste 27 Sudeste 0 905.8 -1.2 25
2019-08-14 13:00:00 27.2 8 Sudeste 32 Sur -- 906.2 -1.4 27
2019-08-14 12:00:00 24.4 9 Sudeste 23 Sur -- 906.4 -1.5 34
2019-08-14 11:00:00 19.5 4 Sudeste 13 Este 0 907 -0.8 42
2019-08-14 10:00:00 16.8 0 Calma 7 Noroeste 0 907.6 -0.1 50
2019-08-14 09:00:00 10.2 2 Nordeste 5 Norte 0 907.9 0.6 71
2019-08-14 08:00:00 7.9 2 Norte 10 Noroeste 0 907.8 0.6 77
2019-08-14 07:00:00 7.6 4 Noroeste 9 Noroeste 0 907.7 0.4 76
2019-08-14 06:00:00 8 2 Noroeste 9 Norte 0 907.3 -0.1 74
2019-08-14 05:00:00 8.5 0 Calma 12 Noroeste 0 907.2 -0.4 75
2019-08-14 04:00:00 9 0 Calma 14 Nordeste 0 907.3 -0.6 73
2019-08-14 03:00:00 9.7 3 Noroeste 11 Noroeste 0 907.4 -0.3 70
2019-08-14 02:00:00 10.6 2 Noroeste 15 Norte 0 907.6 0.1 69
2019-08-14 01:00:00 11.4 4 Noroeste 14 Norte 0 907.9 0.9 68
2019-08-14 00:00:00 11.9 0 Calma 9 Norte 0 907.7 1.6 70
2019-08-13 23:00:00 13.2 3 Noroeste 15 Nordeste 0 907.5 2 67
2019-08-13 22:00:00 14.8 3 Noroeste 8 Norte 0 907 1.9 64
2019-08-13 21:00:00 17.6 2 Noroeste 8 Noroeste 0 906.1 1.2 56
2019-08-13 20:00:00 20.9 3 Noroeste 18 Noroeste 0 905.5 0.6 46
2019-08-13 19:00:00 22.8 9 Noroeste 24 Noroeste 0 905.1 -0.1 36
2019-08-13 18:00:00 25.9 5 Sudeste 23 Sur 0 904.9 -0.6 27
2019-08-13 17:00:00 25.4 7 Sudeste 32 Sur 0 904.9 -1 30
2019-08-13 16:00:00 25.8 8 Sudeste 30 Sudeste 0 905.2 -1.1 31
2019-08-13 15:00:00 25.2 9 Sudeste 28 Este 0 905.5 -1.4 32
2019-08-13 14:00:00 23.9 9 Sudeste 37 Este 0 905.9 -1.2 34
2019-08-13 13:00:00 22.5 8 Sudeste 35 Este 0 906.3 -1.3 38
2019-08-13 12:00:00 19.5 8 Sudeste 25 Sur 0 906.9 -0.8 47
2019-08-13 11:00:00 18.2 6 Sudeste 17 Sur 0 907.1 -0.5 50
2019-08-13 10:00:00 15.1 2 Sudeste 8 Este 0 907.6 0 63
2019-08-13 09:00:00 13.2 2 Sudeste 14 Nordeste 0 907.7 0.2 72
2019-08-13 08:00:00 11.6 5 Norte 15 Noroeste 0 907.6 0.1 74
2019-08-13 07:00:00 10.9 0 Calma 13 Norte 0 907.6 -0.4 77
2019-08-13 06:00:00 10.8 2 Noroeste 15 Sudoeste 0 907.5 -0.6 78
2019-08-13 05:00:00 11.2 2 Noroeste 15 Norte 0 907.5 -0.8 75
2019-08-13 04:00:00 11.4 4 Noroeste 15 Norte 0 908 -0.3 73
2019-08-13 03:00:00 11.3 2 Noroeste 18 Norte 0 908.1 -0.3 73
2019-08-13 02:00:00 12.2 3 Nordeste 19 Norte 0 908.3 -0.3 67
2019-08-13 01:00:00 12.5 8 Noroeste 24 Noroeste 0 908.3 -0.1 65
2019-08-13 00:00:00 13.3 7 Norte 27 Noroeste 0 908.4 0.8 64
2019-08-12 23:00:00 15.3 10 Noroeste 38 Noroeste 0 908.6 1.8 54
2019-08-12 22:00:00 15.6 12 Noroeste 36 Noroeste 0 908.4 2.3 54
2019-08-12 21:00:00 16.2 14 Noroeste 39 Noroeste 0 907.6 2.1 51
2019-08-12 20:00:00 17.1 13 Noroeste 44 Noroeste 0 906.8 1.6 50
2019-08-12 19:00:00 17.7 15 Noroeste 42 Noroeste 0 906.1 0.9 48
2019-08-12 18:00:00 20.1 16 Noroeste 45 Noroeste 0 905.5 0.6 42
2019-08-12 17:00:00 19.9 21 Noroeste 48 Noroeste 0 905.2 0.5 44
2019-08-12 16:00:00 20.4 17 Noroeste 43 Noroeste 0 905.2 0.3 44
2019-08-12 15:00:00 20.5 13 Noroeste 38 Noroeste 0 904.9 0 44
2019-08-12 14:00:00 20.1 13 Noroeste 31 Noroeste 0.2 904.7 0.1 45
2019-08-12 13:00:00 20.4 8 Noroeste 27 Noroeste 0 904.9 0.5 46
2019-08-12 12:00:00 20.6 5 Noroeste 29 Noroeste 0 904.9 0.6 48
2019-08-12 11:00:00 21.5 5 Sudeste 19 Sur -- 904.6 0.7 49
2019-08-12 10:00:00 20.1 6 Noroeste 17 Noroeste -- 904.4 0.9 53
2019-08-12 09:00:00 15.9 0 Calma 4 Sur 0 904.3 1 78
2019-08-12 08:00:00 14.2 0 Calma 3 Norte 0 903.9 0.8 85
2019-08-12 07:00:00 14.6 0 Calma 4 Nordeste 0 903.5 0.6 83
2019-08-12 06:00:00 14.9 0 Calma 5 Norte 0 903.3 0.2 82
2019-08-12 05:00:00 15.1 3 Norte 6 Noroeste 0 903.1 -0.3 83
2019-08-12 04:00:00 14.8 0 Calma 7 Sudeste 0 902.9 -1 84
2019-08-12 03:00:00 14.8 2 Norte 5 Nordeste 0 903.1 -0.8 84
2019-08-12 02:00:00 15.2 0 Calma 5 Noroeste 0 903.4 -0.3 81
2019-08-12 01:00:00 15.9 2 Noroeste 6 Norte 0 903.9 0.5 77
2019-08-12 00:00:00 16.3 2 Noroeste 14 Este 0 903.9 1.1 76
2019-08-11 23:00:00 16.6 2 Noroeste 6 Noroeste 0 903.7 1.1 75
2019-08-11 22:00:00 17.2 0 Calma 6 Noroeste 0 903.4 1 75
2019-08-11 21:00:00 17.9 2 Norte 8 Oeste 0 902.8 0.4 71
2019-08-11 20:00:00 19.6 0 Calma 8 Noroeste 0 902.6 0 63
2019-08-11 19:00:00 22.2 3 Noroeste 33 Este 0 902.4 0 50
2019-08-11 18:00:00 25 8 Sudeste 42 Este 0 902.4 -0.7 34
2019-08-11 17:00:00 25.2 12 Este 39 Este 0 902.6 -1.3 37
2019-08-11 16:00:00 23.4 8 Sudeste 34 Este 0 902.4 -2.2 49
2019-08-11 15:00:00 22.9 6 Sudeste 29 Sur 0 903.1 -1.4 53
2019-08-11 14:00:00 22 5 Sudeste 35 Este 0 903.9 -0.6 69
2019-08-11 13:00:00 19.8 13 Este 36 Este 0 904.6 0.6 82
2019-08-11 12:00:00 19.3 4 Sur 39 Este 0 904.5 0.5 90
2019-08-11 11:00:00 19.2 17 Este 41 Sudeste 0 904.5 0.8 82
2019-08-11 10:00:00 20.5 18 Este 48 Este 0 904 0.2 72
2019-08-11 09:00:00 20.8 8 Sudeste 39 Este 0 904 0.1 70
2019-08-11 08:00:00 20.6 18 Este 41 Este 0 903.7 -0.3 69
2019-08-11 07:00:00 20.2 9 Sudeste 36 Este 0 903.8 -0.7 73
2019-08-11 06:00:00 21.1 6 Sudeste 29 Este 0 903.9 -0.9 60
2019-08-11 05:00:00 21.2 7 Sudeste 23 Sudeste 0 904 -1.4 53
2019-08-11 04:00:00 20.8 4 Sudeste 13 Sudeste 0 904.5 -1.3 51
2019-08-11 03:00:00 18.9 3 Sudeste 8 Este 0 904.8 -1.5 63
2019-08-11 02:00:00 19 0 Calma 5 Noroeste 0 905.4 -0.9 64
2019-08-11 01:00:00 19.2 0 Calma 6 Noroeste 0 905.8 -0.6 62
2019-08-11 00:00:00 19.5 0 Calma 5 Norte 0 906.3 0.7 60
2019-08-10 23:00:00 20.2 0 Calma 7 Nordeste 0 906.3 0.8 56
2019-08-10 22:00:00 21 3 Nordeste 9 Sudeste 0 906.4 1.1 49
2019-08-10 21:00:00 22.6 3 Noroeste 10 Noroeste 0 905.6 0.2 45
2019-08-10 20:00:00 25.1 3 Oeste 19 Este 0 905.5 0.2 31
2019-08-10 19:00:00 26.8 5 Sudeste 38 Este 0 905.3 -0.2 26
2019-08-10 18:00:00 27.5 15 Este 35 Este 0 905.4 -0.3 28
2019-08-10 17:00:00 28.8 12 Este 37 Este 0 905.3 -0.6 28
2019-08-10 16:00:00 29.6 11 Sudeste 36 Sudeste 0 905.5 -0.6 26
2019-08-10 15:00:00 29.5 11 Sudeste -- -- 0 905.7 -0.8 25
2019-08-10 14:00:00 29.7 9 Sudeste 45 Este 0 905.9 -0.5 26
2019-08-10 13:00:00 28.8 9 Sudeste 27 Sur 0 906.1 0 28
2019-08-10 12:00:00 27.8 8 Sudeste 28 Sur 0 906.5 0.2 30
2019-08-10 11:00:00 24.8 8 Sudeste 27 Sur 0 906.4 0.5 38
2019-08-10 10:00:00 24.4 6 Sudeste 26 Sudeste 0 906.1 0.5 46
2019-08-10 09:00:00 20.6 10 Sudeste 30 Sudeste 0 906.3 1.2 63
2019-08-10 08:00:00 18.3 3 Sudeste 12 Sur 0 905.9 1.1 73
2019-08-10 07:00:00 18.4 3 Sudeste 11 Sudeste 0 905.6 1.1 72
2019-08-10 06:00:00 19.5 5 Sudeste 15 Sur 0 905.1 0.5 68
2019-08-10 05:00:00 21.2 4 Sudeste 15 Sur 0 904.8 0.2 62
2019-08-10 04:00:00 22.9 5 Sudeste 18 Sur 0 904.5 -0.2 55
2019-08-10 03:00:00 23.4 4 Sudeste 17 Sudeste 0 904.6 0.2 55
2019-08-10 02:00:00 24.3 7 Sudeste 22 Sudeste 0 904.6 1 50
2019-08-10 01:00:00 24.7 7 Sur 22 Este 0 904.7 1.5 46
2019-08-10 00:00:00 25.1 6 Sudeste 22 Sudeste 0 904.4 1.6 43
2019-08-09 23:00:00 24 0 Calma 9 Norte 0 903.6 1.8 53
2019-08-09 22:00:00 26.7 3 Norte 33 Este 0 903.2 1.5 39
2019-08-09 21:00:00 26.4 5 Sudeste 26 Este 0 902.8 0.6 49
2019-08-09 20:00:00 28.8 9 Este 30 Este 0 901.8 -0.6 29
2019-08-09 19:00:00 29.5 9 Este 33 Este 0 901.7 -0.8 28
2019-08-09 18:00:00 30.1 6 Sudeste 27 Sur 0 902.2 -0.7 28
2019-08-09 17:00:00 30.7 10 Este 30 Sur 0 902.4 -0.6 25
2019-08-09 16:00:00 33.9 10 Sudeste 33 Sur 0 902.5 -0.7 21
2019-08-09 15:00:00 32.5 8 Sudeste 36 Sudeste 0 902.9 -0.7 26
2019-08-09 14:00:00 32.4 9 Sudeste 31 Sur 0 903 -0.7 27
2019-08-09 13:00:00 31.7 7 Sudeste 23 Este 0 903.2 -0.6 27
2019-08-09 12:00:00 29.9 8 Sudeste 30 Este 0 903.6 -0.4 30
2019-08-09 11:00:00 26.4 7 Sudeste 30 Este 0 903.7 -0.4 43
2019-08-09 10:00:00 23.2 0 Calma 7 Norte 0 903.8 -0.4 60
2019-08-09 09:00:00 17.2 0 Calma 15 Este 0 904 0.2 84
2019-08-09 08:00:00 15 0 Calma 7 Noroeste 0 904.1 -0.2 90
2019-08-09 07:00:00 15.1 0 Calma 15 Nordeste 0 904.2 -0.1 88
2019-08-09 06:00:00 15.4 0 Calma 8 Noroeste 0 903.8 -0.5 88
2019-08-09 05:00:00 16.1 0 Calma 6 Norte 0 904.3 -0.1 85
2019-08-09 04:00:00 16.7 2 Oeste 9 Noroeste 0 904.3 0 82
2019-08-09 03:00:00 17.7 2 Noroeste 4 Norte 0 904.3 0.3 79
2019-08-09 02:00:00 17.7 0 Calma 5 Norte 0 904.4 0.7 79
2019-08-09 01:00:00 17.1 2 Noroeste 5 Este 0 904.3 1.2 80
2019-08-09 00:00:00 17.9 3 Noroeste 8 Norte 0 904 1.6 76
2019-08-08 23:00:00 18.8 2 Norte 8 Noroeste 0 903.7 1.7 73
2019-08-08 22:00:00 20 3 Noroeste 7 Noroeste 0 903.1 1.1 68
2019-08-08 21:00:00 22.4 2 Norte 19 Este 0 902.4 0.4 60
2019-08-08 20:00:00 25.6 4 Este 21 Este 0 902 -0.2 44
2019-08-08 19:00:00 25.9 2 Norte 18 Sudeste 0 902 -0.3 50
2019-08-08 18:00:00 27.6 5 Sudeste 13 Este 0 902 -0.7 41
2019-08-08 17:00:00 27.7 5 Sudeste 24 Este 0 902.2 -0.7 42
2019-08-08 16:00:00 29.8 5 Sudeste 28 Sur 0 902.3 -0.8 37
2019-08-08 15:00:00 27.3 6 Sudeste 25 Este 0 902.7 -0.6 43
2019-08-08 14:00:00 26.4 5 Sudeste 19 Sur 0 902.9 -0.5 43
2019-08-08 13:00:00 26.8 4 Sudeste 21 Sudeste 0 903.1 -0.2 43
2019-08-08 12:00:00 28.5 7 Sudeste 20 Este 0 903.3 -0.3 39
2019-08-08 11:00:00 24 6 Este 21 Sudeste 0 903.4 -0.1 52
2019-08-08 10:00:00 21.1 3 Noroeste 15 Este 0 903.3 0 69
2019-08-08 09:00:00 17.6 2 Noroeste 7 Norte 0 903.6 0.4 92
2019-08-08 08:00:00 17.1 0 Calma 3 Este 0 903.5 0.3 93
2019-08-08 07:00:00 16.9 2 Noroeste 10 Noroeste 0 903.3 0.1 94
2019-08-08 06:00:00 17 4 Norte 9 Norte 0 903.2 0 94
2019-08-08 05:00:00 17.4 2 Sudeste 15 Norte 0 903.2 -0.1 94
2019-08-08 04:00:00 17.6 0 Calma 7 Oeste 0 903.2 -0.2 93
2019-08-08 03:00:00 18 4 Noroeste 13 Norte 0 903.2 0.1 90
2019-08-08 02:00:00 18.3 4 Noroeste 10 Noroeste 0 903.3 0.4 87
2019-08-08 01:00:00 18.4 0 Calma 10 Norte 0 903.4 0.5 86
2019-08-08 00:00:00 18.6 4 Noroeste 16 Norte 0 903.1 0.8 86
2019-08-07 23:00:00 18.6 5 Norte 14 Noroeste 0 902.9 0.7 84
2019-08-07 22:00:00 19.1 5 Norte 17 Norte 0 902.9 0.9 84
2019-08-07 21:00:00 19.8 6 Norte 19 Norte 0 902.3 0.3 81
2019-08-07 20:00:00 21.8 4 Noroeste 32 Este 0 902.2 0.5 70
2019-08-07 19:00:00 23.3 6 Sur 33 Este 0 902 1 53
2019-08-07 18:00:00 24.3 7 Sudeste 28 Sudeste 0 902 1.3 53
2019-08-07 17:00:00 26.2 9 Sudeste 38 Este 0 901.7 0.9 49
2019-08-07 16:00:00 27.6 11 Sudeste 31 Sur 0 901 -0.3 43
2019-08-07 15:00:00 26 6 Sudeste 22 Sudoeste 0 900.7 -0.4 46
2019-08-07 14:00:00 26.3 4 Sudeste 14 Sur 0 900.8 -0.2 46
2019-08-07 13:00:00 24.1 3 Sudeste 27 Sudeste 0 901.3 0.1 57
2019-08-07 12:00:00 24.3 6 Sudeste 31 Este 0 901.1 0.3 56
2019-08-07 11:00:00 23.4 11 Este 33 Este 0 901 0.2 59
2019-08-07 10:00:00 21.9 9 Sudeste 27 Este 0 901.2 0.6 66
2019-08-07 09:00:00 20.5 4 Sudeste 13 Nordeste 0 900.8 1.1 73
2019-08-07 08:00:00 15.9 0 Calma 6 Norte 0 900.8 0.7 85
2019-08-07 07:00:00 15.1 0 Calma 5 Norte 0 900.6 0.3 84
2019-08-07 06:00:00 15.7 0 Calma 5 Noroeste 0 899.7 -0.8 82
2019-08-07 05:00:00 16.2 0 Calma 6 Nordeste 0 900.1 -0.7 79
2019-08-07 04:00:00 16.6 0 Calma 8 Norte 0 900.3 -1.2 77
2019-08-07 03:00:00 16.4 2 Noroeste 6 Noroeste 0 900.5 -1.1 79
2019-08-07 02:00:00 16.8 0 Calma 5 Noroeste 0 900.8 -0.8 77
2019-08-07 01:00:00 17.9 2 Noroeste 6 Noroeste 0 901.5 0.4 72
2019-08-07 00:00:00 18.5 0 Calma 14 Norte 0 901.6 0.7 70
2019-08-06 23:00:00 19.4 0 Calma 6 Noroeste 0 901.6 0.9 68
2019-08-06 22:00:00 20.6 0 Calma 7 Noroeste 0 901.1 0.6 63
2019-08-06 21:00:00 23 0 Calma 6 Noroeste 0 900.9 0.4 58
2019-08-06 20:00:00 25.3 0 Calma 10 Sudoeste 0 900.7 -0.3 49
2019-08-06 19:00:00 28 3 Sudeste 19 Noroeste 0 900.5 -1 39
2019-08-06 18:00:00 30.1 4 Norte 19 Sur 0 900.5 -1.2 30
2019-08-06 17:00:00 31.5 9 Sudeste 27 Sudeste 0 901 -1.2 24
2019-08-06 16:00:00 30.7 7 Sudeste 29 Este 0 901.5 -0.8 29
2019-08-06 15:00:00 31.7 9 Sudeste 30 Sur 0 901.7 -1.1 25
2019-08-06 14:00:00 32.2 8 Sudeste 30 Sur 0 902.2 -0.8 23
2019-08-06 13:00:00 30.5 11 Sudeste 29 Sur 0 902.3 -1.3 29
2019-08-06 12:00:00 29.2 7 Sudeste 27 Sudeste 0 902.8 -1.2 36
2019-08-06 11:00:00 25 5 Sudeste 14 Sur 0 903 -1.1 50
2019-08-06 10:00:00 23.2 2 Este 9 Noroeste 0 903.6 -0.5 60
2019-08-06 09:00:00 17.4 2 Norte 8 Norte 0 904 0.1 81
2019-08-06 08:00:00 14.8 2 Noroeste 6 Norte 0 904.1 0.1 87
2019-08-06 07:00:00 14.7 2 Norte 6 Noroeste 0 904.1 0 86
2019-08-06 06:00:00 15.2 2 Noroeste 6 Oeste 0 903.9 -0.5 84
2019-08-06 05:00:00 15.6 2 Norte 8 Noroeste 0 904 -0.8 83
2019-08-06 04:00:00 15.8 0 Calma 8 Oeste 0 904.1 -0.9 81
2019-08-06 03:00:00 16.6 4 Oeste 9 Norte 0 904.4 -0.3 76
2019-08-06 02:00:00 16.9 0 Calma 10 Noroeste 0 904.8 0.3 73
2019-08-06 01:00:00 18 0 Calma 17 Norte 0 905 1.1 68
2019-08-06 00:00:00 18.3 0 Calma 10 Noroeste 0 904.7 1.7 67
2019-08-05 23:00:00 19.3 4 Noroeste 9 Noroeste 0 904.5 2 63
2019-08-05 22:00:00 20.5 2 Noroeste 7 Noroeste 0 903.9 1.4 55
2019-08-05 21:00:00 22.8 0 Calma 12 Sudeste 0 903 0.3 46
2019-08-05 20:00:00 26.1 5 Sudeste 21 Este 0 902.5 -0.6 31
2019-08-05 19:00:00 30.2 5 Sudeste 34 Este 0 902.5 -0.6 24
2019-08-05 18:00:00 30.4 5 Sudeste 32 Este 0 902.7 -0.8 23
2019-08-05 17:00:00 32.3 9 Sudeste 39 Sudeste 0 903.1 -0.8 23
2019-08-05 16:00:00 32.2 11 Sudeste 40 Este 0 903.1 -1.2 17
2019-08-05 15:00:00 32.9 9 Sudeste 36 Sur 0 903.5 -1.3 21
2019-08-05 14:00:00 31.9 9 Sudeste 29 Sudeste 0 903.9 -1.3 27
2019-08-05 13:00:00 31.2 8 Sudeste 35 Sur 0 904.3 -1.3 27
2019-08-05 12:00:00 28.9 11 Sudeste 36 Sudeste 0 904.8 -1.2 38
2019-08-05 11:00:00 24.8 4 Sudeste 12 Sur 0 905.2 -0.8 57
2019-08-05 10:00:00 22.7 2 Nordeste 10 Noroeste 0 905.6 -0.4 62
2019-08-05 09:00:00 17.1 2 Norte 4 Norte 0 906 0.5 80
2019-08-05 08:00:00 14.6 0 Calma 6 Oeste 0 906 0.4 87
2019-08-05 07:00:00 14.4 0 Calma 9 Norte 0 906 0.1 87
2019-08-05 06:00:00 14.7 2 Noroeste 6 Noroeste 0 905.5 -0.5 86
2019-08-05 05:00:00 15.1 0 Calma 7 Noroeste 0 905.6 -0.4 84
2019-08-05 04:00:00 15.7 0 Calma 8 Noroeste 0 905.9 -0.2 81
2019-08-05 03:00:00 16.1 2 Noroeste 6 Oeste 0 906 0.3 79
2019-08-05 02:00:00 16.8 2 Norte 10 Noroeste 0 906 0.5 75
2019-08-05 01:00:00 17.6 0 Calma 8 Noroeste 0 906.1 1.4 72
2019-08-05 00:00:00 18.7 3 Noroeste 8 Noroeste 0 905.7 1.9 68
2019-08-04 23:00:00 19.7 0 Calma 5 Noroeste 0 905.5 2.4 62
2019-08-04 22:00:00 21.2 3 Noroeste 13 Este 0 904.7 2.2 56
2019-08-04 21:00:00 23.9 2 Noroeste 18 Nordeste 0 903.8 1.3 45
2019-08-04 20:00:00 28.3 5 Sur 22 Este 0 903.1 0.2 25
2019-08-04 19:00:00 30.7 6 Sur 32 Este 0 902.5 -0.5 20
2019-08-04 18:00:00 32.8 5 Sur 32 Este 0 902.5 -0.5 20
2019-08-04 17:00:00 33 9 Sudeste 41 Este 0 902.9 -0.7 20
2019-08-04 16:00:00 33.1 9 Este 39 Sur 0 903 -1 22
2019-08-04 15:00:00 32.9 10 Sudeste 35 Este 0 903 -1.2 21
2019-08-04 14:00:00 32.1 8 Sudeste 27 Sur 0 903.6 -1 25
2019-08-04 13:00:00 31.4 10 Sudeste 27 Sur 0 904 -1 26
2019-08-04 12:00:00 29.5 6 Sudeste 24 Este 0 904.2 -1.3 37
2019-08-04 11:00:00 25 5 Sudeste 13 Sur 0 904.6 -0.9 47
2019-08-04 10:00:00 22.4 0 Calma 7 Noroeste 0 905 -0.1 62
2019-08-04 09:00:00 16.6 3 Norte 9 Noroeste 0 905.5 0.5 79
2019-08-04 08:00:00 14 0 Calma 6 Noroeste 0 905.5 0.5 88
2019-08-04 07:00:00 13.9 0 Calma 8 Sudoeste 0 905.1 0 87
2019-08-04 06:00:00 14.6 3 Noroeste 8 Noroeste 0 905 -0.2 83
2019-08-04 05:00:00 14.6 0 Calma 8 Oeste 0 905 -0.2 84
2019-08-04 04:00:00 15.2 2 Noroeste 8 Noroeste 0 905.1 0 82
2019-08-04 03:00:00 16.3 3 Noroeste 11 Noroeste 0 905.2 0.2 77
2019-08-04 02:00:00 16.5 3 Noroeste 15 Norte 0 905.2 0.6 76
2019-08-04 01:00:00 17 4 Noroeste 14 Nordeste 0 905.1 1.1 74
2019-08-04 00:00:00 18.2 3 Noroeste 10 Noroeste 0 905 2 68
2019-08-03 23:00:00 18.5 3 Norte 9 Noroeste 0 904.6 2.3 67
2019-08-03 22:00:00 19.5 0 Calma 6 Noroeste 0 904 1.7 64
2019-08-03 21:00:00 21.8 2 Noroeste 6 Este 0 903 0.5 56
2019-08-03 20:00:00 25.2 0 Calma 6 Noroeste 0 902.3 -0.5 47
2019-08-03 19:00:00 28.7 0 Calma 17 Este 0 902.3 -1 37
2019-08-03 18:00:00 29.8 8 Sudeste 30 Este 0 902.5 -1.1 26
2019-08-03 17:00:00 30.4 6 Sudeste 36 Sur 0 902.8 -1.3 27
2019-08-03 16:00:00 30.6 7 Sudeste 26 Sudeste 0 903.3 -1.3 26
2019-08-03 15:00:00 31.8 7 Sudeste 28 Este 0 903.6 -1.2 24
2019-08-03 14:00:00 31.1 8 Sudeste 27 Sur 0 904.1 -1 27
2019-08-03 13:00:00 29.7 10 Sudeste 27 Este 0 904.6 -1 29
2019-08-03 12:00:00 28.1 7 Sudeste 28 Este 0 904.8 -1.1 31
2019-08-03 11:00:00 23.7 4 Este 10 Sur 0 905.1 -1 44
2019-08-03 10:00:00 20.4 4 Noroeste 10 Noroeste 0 905.6 -0.6 55
2019-08-03 09:00:00 15 2 Este 8 Noroeste 0 905.9 -0.3 76
2019-08-03 08:00:00 12.3 3 Noroeste 9 Noroeste 0 906.1 0 88
2019-08-03 07:00:00 12.2 2 Noroeste 10 Noroeste 0 906.2 -0.1 87
2019-08-03 06:00:00 12.3 3 Noroeste 10 Oeste 0 906.2 -0.3 87
2019-08-03 05:00:00 12.4 3 Noroeste 8 Noroeste 0 906.1 -0.2 88
2019-08-03 04:00:00 12.8 0 Calma 4 Noroeste 0 906.3 0.4 87
2019-08-03 03:00:00 13.6 0 Calma 6 Noroeste 0 906.5 0.9 85
2019-08-03 02:00:00 14.4 0 Calma 7 Norte 0 906.3 0.8 82
2019-08-03 01:00:00 15.5 3 Norte 7 Oeste 0 905.9 0.6 78
2019-08-03 00:00:00 17 2 Noroeste 10 Norte 0 905.6 1.1 72
2019-08-02 23:00:00 18.6 4 Noroeste 12 Norte 0 905.5 1.8 66
2019-08-02 22:00:00 20.3 0 Calma 9 Nordeste 0 905.3 2 62
2019-08-02 21:00:00 23.4 6 Noroeste 31 Noroeste 0 904.5 1.3 50
2019-08-02 20:00:00 25.3 8 Noroeste 30 Oeste 0 903.7 0.4 43
2019-08-02 19:00:00 27.5 12 Noroeste 28 Noroeste 0 903.3 -0.3 35
2019-08-02 18:00:00 31.4 8 Sudeste 30 Sudeste 0 903.2 -0.8 21
2019-08-02 17:00:00 31.5 7 Sudeste 26 Sudeste 0 903.3 -0.8 24
2019-08-02 16:00:00 30.6 6 Sudeste 26 Sudeste 0 903.6 -0.7 27
2019-08-02 15:00:00 29.4 9 Sudeste 24 Sudeste 0 904 -0.5 28
2019-08-02 14:00:00 29.1 6 Sudeste 24 Nordeste 0 904.1 -0.8 31
2019-08-02 13:00:00 28.9 7 Sudeste 24 Sudeste 0 904.3 -0.9 34
2019-08-02 12:00:00 26.9 9 Sudeste 28 Sudeste 0 904.5 -1 37
2019-08-02 11:00:00 23.4 7 Este 21 Sudeste 0 904.9 -0.5 49
2019-08-02 10:00:00 21.1 0 Calma 8 Noroeste 0 905.2 0 58
2019-08-02 09:00:00 15.2 0 Calma 4 Norte 0 905.5 0.5 86
2019-08-02 08:00:00 12.7 0 Calma 9 Noroeste 0 905.4 0.3 92
2019-08-02 07:00:00 12.4 2 Norte 7 Noroeste 0 905.2 -0.1 92
2019-08-02 06:00:00 12.7 2 Noroeste 6 Noroeste 0 905 -0.1 91
2019-08-02 05:00:00 13.4 0 Calma 14 Nordeste 0 905.1 0 88
2019-08-02 04:00:00 14.3 0 Calma 10 Norte 0 905.3 -0.1 85
2019-08-02 03:00:00 15.4 2 Sudeste 18 Noroeste 0 905.1 0.4 80
2019-08-02 02:00:00 15.7 4 Noroeste 19 Norte 0 905.1 0.5 79
2019-08-02 01:00:00 16.6 5 Noroeste 20 Noroeste 0 905.4 1.4 75
2019-08-02 00:00:00 17.2 6 Noroeste 21 Norte 0 904.7 2.1 72
2019-08-01 23:00:00 18.7 6 Noroeste 24 Norte 0 904.6 2.3 67
2019-08-01 22:00:00 20.7 8 Norte 44 Oeste 0 904 2 57
2019-08-01 21:00:00 21.2 4 Noroeste 12 Norte 0 902.6 0.6 60
2019-08-01 20:00:00 22.3 2 Noroeste 9 Sur 0 902.3 0.4 56
2019-08-01 19:00:00 25.4 2 Noroeste 7 Noroeste 0 902 -0.3 41
2019-08-01 18:00:00 26.9 4 Oeste 25 Sur 0 902 -0.7 34
2019-08-01 17:00:00 29.7 6 Sudeste 30 Sudeste 0 901.9 -1.1 28
2019-08-01 16:00:00 27.9 9 Sudeste 30 Este 0 902.3 -1.3 34
2019-08-01 15:00:00 28.1 7 Sudeste 21 Sudeste 0 902.7 -1.2 35
2019-08-01 14:00:00 27.3 5 Sudeste 21 Sudeste 0 903 -0.9 43
2019-08-01 13:00:00 25.6 4 Sudeste 28 Sur 0 903.6 -0.5 47
2019-08-01 12:00:00 25.3 6 Sudeste 23 Sudeste 0 903.9 -0.2 50
2019-08-01 11:00:00 23.1 5 Sudeste 17 Sur 0 903.9 -1 56
2019-08-01 10:00:00 19.8 2 Este 7 Este 0 904.1 -0.5 75
2019-08-01 09:00:00 16.5 4 Nordeste 16 Norte 0 904.1 -0.6 91
2019-08-01 08:00:00 13.9 3 Norte 8 Oeste 0 904.9 0.6 97
2019-08-01 07:00:00 13.6 0 Calma 8 Noroeste 0 904.6 -0.7 96
2019-08-01 06:00:00 14.2 3 Noroeste 13 Norte 0 904.7 -0.6 96
2019-08-01 05:00:00 14.8 4 Noroeste 13 Noroeste 0 904.3 -2 95
2019-08-01 04:00:00 15.1 4 Noroeste 16 Este 0 905.3 -0.7 93
2019-08-01 03:00:00 15.9 6 Norte 24 Norte 0 905.3 -1.5 75
2019-08-01 02:00:00 14.4 3 Noroeste 13 Noroeste 0 906.3 0.2 81
2019-08-01 01:00:00 15.3 2 Este 22 Norte 0 906 0.3 76
2019-08-01 00:00:00 15 2 Noroeste 7 Noroeste 0 906.8 1.8 79
2019-07-31 23:00:00 16.3 0 Calma 15 Norte 0 906.1 1.4 73
2019-07-31 22:00:00 17.8 3 Noroeste 9 Noroeste 0 905.7 1.1 67
2019-07-31 21:00:00 20.3 2 Noroeste 15 Sur 0 905 0.4 59
2019-07-31 20:00:00 23.4 4 Sur 15 Sur 0 904.7 0.2 44
2019-07-31 19:00:00 25.4 6 Sudeste 19 Sur 0 904.6 -0.4 36
2019-07-31 18:00:00 27.4 8 Sudeste 21 Sudeste 0 904.6 -0.5 33
2019-07-31 17:00:00 29.1 7 Sudeste 25 Este 0 904.5 -0.9 29
2019-07-31 16:00:00 28.1 9 Sudeste 28 Sudeste 0 905 -1.1 30
2019-07-31 15:00:00 27.8 9 Sudeste 26 Este 0 905.1 -1.4 31
2019-07-31 14:00:00 27.4 9 Sudeste 24 Sudeste 0 905.4 -1.5 33
2019-07-31 13:00:00 25.9 6 Sudeste 23 Sudeste 0 906.1 -1.3 38
2019-07-31 12:00:00 23.8 7 Sudeste 23 Sur 0 906.5 -1.2 37
2019-07-31 11:00:00 19.5 6 Sudeste 19 Sudeste 0 906.9 -0.8 50
2019-07-31 10:00:00 15.4 0 Calma 8 Norte 0 907.4 -0.1 69
2019-07-31 09:00:00 12.9 0 Calma 8 Oeste 0 907.7 0.3 83
2019-07-31 08:00:00 10.4 2 Noroeste 9 Noroeste 0 907.7 0.6 87
2019-07-31 07:00:00 9.3 2 Oeste 8 Noroeste 0 907.5 0.5 89
2019-07-31 06:00:00 9.4 0 Calma 8 Noroeste 0 907.4 0.5 88
2019-07-31 05:00:00 9.7 2 Noroeste 13 Noroeste 0 907.1 0.4 88
2019-07-31 04:00:00 10.1 0 Calma 11 Noroeste 0 907 0.2 87
2019-07-31 03:00:00 10.7 0 Calma 7 Noroeste 0 906.9 0.4 85
2019-07-31 02:00:00 11.6 0 Calma 6 Noroeste 0 906.7 0.5 82
2019-07-31 01:00:00 12.8 2 Oeste 11 Noroeste 0 906.8 1.3 78
2019-07-31 00:00:00 13.7 2 Noroeste 11 Norte 0 906.5 2.3 71
2019-07-30 23:00:00 15.3 2 Norte 6 Este 0 906.2 2.8 66
2019-07-30 22:00:00 17.8 2 Norte 20 Noroeste 0 905.5 2.7 54
2019-07-30 21:00:00 21.5 5 Noroeste 29 Este 0 904.2 1.2 40
2019-07-30 20:00:00 23.4 6 Este 28 Este 0 903.4 0.2 32
2019-07-30 19:00:00 25.4 9 Este 27 Este 0 902.8 -0.6 29
2019-07-30 18:00:00 26.5 6 Este 26 Este 0 903 -0.6 32
2019-07-30 17:00:00 26.1 8 Sudeste 32 Sur 0 903.2 -0.6 35
2019-07-30 16:00:00 26.2 9 Sudeste 37 Este 0 903.4 -0.4 36
2019-07-30 15:00:00 25.1 9 Sudeste 38 Este 0 903.6 -0.3 39
2019-07-30 14:00:00 23.6 12 Sudeste 41 Este 0 903.8 0.1 42
2019-07-30 13:00:00 23.2 11 Sudeste 39 Sudeste 0 903.8 -0.1 48
2019-07-30 12:00:00 24.5 9 Sudeste 31 Sudeste 0 903.9 0 45
2019-07-30 11:00:00 23.6 9 Sudeste 26 Este 0 903.7 0.3 48
2019-07-30 10:00:00 21 6 Sudeste 22 Sudeste 0 903.9 0.9 56
2019-07-30 09:00:00 18.7 6 Sudeste 20 Este 0 903.9 1.2 65
2019-07-30 08:00:00 15.8 0 Calma 4 Noroeste 0 903.4 1.1 83
2019-07-30 07:00:00 15.2 2 Noroeste 5 Noroeste 0 903 0.6 82
2019-07-30 06:00:00 15.3 2 Noroeste 8 Norte 0 902.7 0.2 79
2019-07-30 05:00:00 15 2 Noroeste 6 Oeste 0 902.3 -0.3 79
2019-07-30 04:00:00 15.1 0 Calma 6 Oeste 0 902.4 -0.1 79
2019-07-30 03:00:00 15.1 2 Norte 4 Oeste 0 902.5 0.1 78
2019-07-30 02:00:00 15.7 0 Calma 5 Norte 0 902.6 0.8 75
2019-07-30 01:00:00 15.9 3 Norte 8 Oeste 0 902.5 1.5 72
2019-07-30 00:00:00 16.1 2 Noroeste 9 Oeste 0 902.4 2 71
2019-07-29 23:00:00 15.9 2 Norte 8 Noroeste 0 901.8 1.9 71
2019-07-29 22:00:00 17.1 0 Calma 7 Noroeste 0 901 1.3 69
2019-07-29 21:00:00 19.4 2 Noroeste 8 Noroeste 0 900.4 0.7 62
2019-07-29 20:00:00 22.3 2 Noroeste 7 Sur 0 899.9 0.2 50
2019-07-29 19:00:00 25.3 0 Calma 16 Sur 0 899.7 -0.2 39
2019-07-29 18:00:00 30.6 4 Sur 27 Sur 0 899.7 -0.4 23
2019-07-29 17:00:00 30 6 Sudeste 29 Sur 0 899.7 -0.5 23
2019-07-29 16:00:00 28.9 5 Este 30 Sur 0 899.9 -0.4 25
2019-07-29 15:00:00 28.6 7 Sudeste 28 Sudeste 0 900.1 -0.3 25
2019-07-29 14:00:00 28.4 10 Sudeste 28 Sudeste 0 900.2 -0.5 25
2019-07-29 13:00:00 27 9 Sudeste 26 Sur 0 900.3 -0.7 28
2019-07-29 12:00:00 25.6 7 Sudeste 22 Sur -- 900.4 -1.1 28
2019-07-29 11:00:00 21.7 5 Este 13 Este 0 900.7 -0.9 42
2019-07-29 10:00:00 18.6 2 Nordeste 11 Noroeste 0 901 -0.3 61
2019-07-29 09:00:00 12.6 4 Norte 8 Norte 0 901.5 0.2 81
2019-07-29 08:00:00 9.5 3 Oeste 10 Noroeste 0 901.6 0.3 92
2019-07-29 07:00:00 9.2 2 Oeste 8 Noroeste 0 901.3 0.1 94
2019-07-29 06:00:00 9.3 0 Calma 8 Oeste 0 901.3 0.2 93
2019-07-29 05:00:00 9.7 0 Calma 9 Noroeste 0 901.3 0.1 92
2019-07-29 04:00:00 10.1 0 Calma 5 Norte 0 901.2 0.2 91
2019-07-29 03:00:00 11 2 Noroeste 7 Norte 0 901.1 0.3 89
2019-07-29 02:00:00 11.5 2 Noroeste 4 Noroeste 0 901.2 0.6 88
2019-07-29 01:00:00 12.5 0 Calma 6 Noroeste 0 901 1 83
2019-07-29 00:00:00 13.3 2 Noroeste 5 Noroeste 0 900.8 1.8 80
2019-07-28 23:00:00 14.6 0 Calma 5 Oeste 0 900.6 2.2 76
2019-07-28 22:00:00 15.9 0 Calma 8 Noroeste 0 900 2.1 70
2019-07-28 21:00:00 18.1 3 Norte 15 Sudeste 0 899 1.3 62
2019-07-28 20:00:00 22.4 5 Sudeste 13 Sudeste 0 898.4 0.7 34
2019-07-28 19:00:00 25.1 5 Sur 17 Sudeste 0 897.9 -0.1 28
2019-07-28 18:00:00 27.1 6 Sudeste 25 Este 0 897.7 -0.5 26
2019-07-28 17:00:00 27.4 6 Sudeste 26 Sur 0 897.7 -0.8 23
2019-07-28 16:00:00 26.8 8 Sudeste 28 Sur 0 898 -1 25
2019-07-28 15:00:00 26.7 7 Sudeste 23 Sur 0 898.2 -1.4 23
2019-07-28 14:00:00 24.4 8 Noroeste 24 Noroeste 0 898.5 -1.3 28
2019-07-28 13:00:00 22.5 13 Noroeste 27 Noroeste 0 899 -0.9 31
2019-07-28 12:00:00 20.9 15 Noroeste 31 Noroeste 0 899.6 0 35
2019-07-28 11:00:00 20.2 10 Noroeste 30 Noroeste 0 899.8 0.1 35
2019-07-28 10:00:00 17.9 12 Noroeste 27 Noroeste 0 899.9 0.8 39
2019-07-28 09:00:00 15 10 Norte 31 Noroeste 0 899.6 0.8 52
2019-07-28 08:00:00 12.2 8 Norte 22 Norte 0 899.7 1.3 67
2019-07-28 07:00:00 12.8 7 Norte 25 Noroeste 0 899.1 0.7 59
2019-07-28 06:00:00 12.5 7 Noroeste 23 Norte 0 898.8 0.4 63
2019-07-28 05:00:00 13 8 Noroeste 33 Noroeste 0 898.4 0.1 65
2019-07-28 04:00:00 14.3 10 Noroeste 30 Oeste 0 898.4 0 52
2019-07-28 03:00:00 13.4 6 Noroeste 32 Noroeste 0 898.4 0.3 68
2019-07-28 02:00:00 14.6 10 Noroeste 33 Noroeste 0 898.3 0.4 56
2019-07-28 01:00:00 14.6 10 Noroeste 24 Norte 0 898.4 0.9 56
2019-07-28 00:00:00 14.8 9 Norte 49 Noroeste 0 898.1 1.9 61
2019-07-27 23:00:00 15.2 15 Noroeste 42 Noroeste 0 897.9 2.3 55
2019-07-26 12:00:00 25.4 5 Sudeste 28 Sudeste 0 902.3 -0.7 41
2019-07-26 11:00:00 24.2 6 Sudeste 17 Este 0 901.9 -0.9 47
2019-07-26 10:00:00 23.1 3 Sudeste 9 Sudeste 0 902.8 0 58
2019-07-26 09:00:00 19.4 3 Sudeste 22 Norte 0 903 0.1 78
2019-07-26 08:00:00 18.3 3 Noroeste 10 Noroeste 0 902.8 -0.3 72
2019-07-26 07:00:00 17.5 2 Sudeste 13 Noroeste 0 902.8 -0.6 73
2019-07-26 06:00:00 17.5 2 Noroeste 17 Norte 0 902.9 -1 72
2019-07-26 05:00:00 17 0 Calma 9 Norte 0 903.1 -1.1 74
2019-07-26 04:00:00 16.9 2 Norte 6 Noroeste 0 903.4 -1.2 75
2019-07-26 03:00:00 17.4 0 Calma 10 Noroeste 0 903.9 -0.6 72
2019-07-26 02:00:00 18.1 4 Noroeste 14 Noroeste 0 904.2 -0.5 69
2019-07-26 01:00:00 18.7 2 Noroeste 6 Norte 0 904.6 0 67
2019-07-26 00:00:00 19.9 3 Norte 11 Norte 0 904.5 0.7 64